createdAt,value
2022-09-01T00:00:09.090Z,101562.03
2022-09-01T00:03:15.051Z,101561.88
2022-09-01T00:06:22.971Z,101572.41
2022-09-01T00:09:28.926Z,101566.06
2022-09-01T00:12:34.894Z,101564.91
2022-09-01T00:15:41.572Z,101556.69
2022-09-01T00:18:49.751Z,101550.34
2022-09-01T00:22:01.223Z,101545.63
2022-09-01T00:25:08.381Z,101550.16
2022-09-01T00:28:15.576Z,101546.31
2022-09-01T00:31:28.206Z,101545.28
2022-09-01T00:34:34.172Z,101542.28
2022-09-01T00:37:40.157Z,101539.69
2022-09-01T00:40:46.008Z,101543.53
2022-09-01T00:43:57.562Z,101540.84
2022-09-01T00:47:06.968Z,101533.44
2022-09-01T00:50:13.337Z,101533.09
2022-09-01T00:53:19.519Z,101533.75
2022-09-01T00:56:26.488Z,101537.28
2022-09-01T00:59:32.309Z,101529.88
2022-09-01T01:02:40.374Z,101535.78
2022-09-01T01:05:48.613Z,101534.16
2022-09-01T01:09:01.118Z,101537.72
2022-09-01T01:12:07.190Z,101532.75
2022-09-01T01:15:13.044Z,101533.75
2022-09-01T01:18:23.478Z,101537.59
2022-09-01T01:21:46.924Z,101527.25
2022-09-01T01:25:05.573Z,101529.63
2022-09-01T01:28:11.212Z,101532.81
2022-09-01T01:31:20.430Z,101528.66
2022-09-01T01:34:27.043Z,101523.78
2022-09-01T01:37:33.039Z,101522.22
2022-09-01T01:40:39.154Z,101526.22
2022-09-01T01:43:45.811Z,101537.94
2022-09-01T01:46:52.059Z,101533.91
2022-09-01T01:49:59.357Z,101530.06
2022-09-01T01:53:11.433Z,101531.34
2022-09-01T01:56:18.769Z,101531.19
2022-09-01T01:59:24.912Z,101525.31
2022-09-01T02:02:31.942Z,101532.50
2022-09-01T02:05:39.123Z,101519.94
2022-09-01T02:08:46.294Z,101522.63
2022-09-01T02:11:54.656Z,101523.47
2022-09-01T02:15:01.165Z,101518.94
2022-09-01T02:18:07.645Z,101519.78
2022-09-01T02:21:19.341Z,101521.44
2022-09-01T02:24:28.065Z,101528.31
2022-09-01T02:27:37.666Z,101526.53
2022-09-01T02:30:57.740Z,101526.47
2022-09-01T02:34:07.480Z,101526.47
2022-09-01T02:37:13.918Z,101525.66
2022-09-01T02:40:25.094Z,101527.03
2022-09-01T02:43:33.309Z,101530.38
2022-09-01T02:46:43.472Z,101533.25
2022-09-01T02:50:04.035Z,101530.38
2022-09-01T02:53:12.519Z,101528.88
2022-09-01T02:56:19.278Z,101524.47
2022-09-01T02:59:25.138Z,101524.44
2022-09-01T03:02:33.546Z,101519.56
2022-09-01T03:06:00.655Z,101525.41
2022-09-01T03:09:09.069Z,101520.88
2022-09-01T03:12:18.722Z,101532.25
2022-09-01T03:15:32.521Z,101532.25
2022-09-01T03:18:38.680Z,101529.22
2022-09-01T03:21:50.561Z,101532.75
2022-09-01T03:24:58.048Z,101529.22
2022-09-01T03:28:05.303Z,101540.94
2022-09-01T03:31:11.156Z,101540.63
2022-09-01T03:34:20.965Z,101532.09
2022-09-01T03:37:45.415Z,101536.44
2022-09-01T03:40:53.957Z,101536.09
2022-09-01T03:44:01.215Z,101535.94
2022-09-01T03:47:10.882Z,101538.44
2022-09-01T03:50:20.602Z,101534.75
2022-09-01T03:53:49.911Z,101535.59
2022-09-01T03:57:00.694Z,101528.56
2022-09-01T04:00:20.690Z,101523.22
2022-09-01T04:03:28.783Z,101530.22
2022-09-01T04:06:41.649Z,101534.75
2022-09-01T04:09:47.505Z,101542.63
2022-09-01T04:13:00.613Z,101538.25
2022-09-01T04:16:36.195Z,101541.59
2022-09-01T04:19:42.538Z,101539.59
2022-09-01T04:22:49.888Z,101534.50
2022-09-01T04:26:11.091Z,101538.69
2022-09-01T04:29:21.175Z,101539.00
2022-09-01T04:32:28.396Z,101541.31
2022-09-01T04:35:38.045Z,101544.16
2022-09-01T04:38:44.463Z,101546.50
2022-09-01T04:41:53.125Z,101536.09
2022-09-01T04:45:01.927Z,101546.38
2022-09-01T04:48:16.720Z,101539.59
2022-09-01T04:51:28.287Z,101536.47
2022-09-01T04:54:37.336Z,101541.41
2022-09-01T04:57:48.190Z,101538.50
2022-09-01T05:01:04.732Z,101541.59
2022-09-01T05:04:12.926Z,101545.00
2022-09-01T05:07:19.375Z,101549.84
2022-09-01T05:10:30.314Z,101544.47
2022-09-01T05:13:47.970Z,101552.34
2022-09-01T05:16:55.798Z,101551.78
2022-09-01T05:20:05.485Z,101552.72
2022-09-01T05:26:34.216Z,101555.00
2022-09-01T05:29:41.602Z,101557.53
2022-09-01T05:32:49.459Z,101550.84
2022-09-01T05:36:02.534Z,101561.97
2022-09-01T05:39:10.002Z,101556.19
2022-09-01T05:42:23.361Z,101559.44
2022-09-01T05:45:44.769Z,101563.66
2022-09-01T05:49:05.341Z,101554.41
2022-09-01T05:52:12.178Z,101550.19
2022-09-01T05:55:19.728Z,101555.84
2022-09-01T05:58:26.847Z,101557.59
2022-09-01T06:01:38.696Z,101552.69
2022-09-01T06:04:47.989Z,101553.72
2022-09-01T06:07:57.543Z,101557.09
2022-09-01T06:11:13.111Z,101549.91
2022-09-01T06:14:20.042Z,101544.78
2022-09-01T06:17:26.265Z,101542.38
2022-09-01T06:20:35.518Z,101537.22
2022-09-01T06:23:49.803Z,101539.34
2022-09-01T06:26:56.843Z,101537.31
2022-09-01T06:30:05.113Z,101535.09
2022-09-01T06:33:13.915Z,101537.06
2022-09-01T06:36:23.114Z,101547.44
2022-09-01T06:39:29.128Z,101540.03
2022-09-01T06:42:36.048Z,101544.66
2022-09-01T06:45:42.601Z,101544.88
2022-09-01T06:48:48.992Z,101542.88
2022-09-01T06:51:55.740Z,101549.94
2022-09-01T06:55:07.121Z,101541.44
2022-09-01T06:58:15.832Z,101547.72
2022-09-01T07:01:30.845Z,101546.28
2022-09-01T07:04:40.326Z,101545.31
2022-09-01T07:08:05.392Z,101543.06
2022-09-01T07:11:19.798Z,101540.00
2022-09-01T07:14:27.283Z,101552.50
2022-09-01T07:17:42.354Z,101543.00
2022-09-01T07:21:35.688Z,101544.22
2022-09-01T07:24:19.914Z,101542.63
2022-09-01T07:27:36.077Z,101546.38
2022-09-01T07:30:48.632Z,101542.06
2022-09-01T07:44:19.753Z,101549.38
2022-09-01T07:54:19.682Z,101551.69
2022-09-01T07:57:25.526Z,101557.09
2022-09-01T08:00:32.247Z,101556.50
2022-09-01T08:03:38.613Z,101566.25
2022-09-01T08:06:46.040Z,101567.31
2022-09-01T08:09:55.948Z,101569.16
2022-09-01T08:13:07.479Z,101559.44
2022-09-01T08:16:17.904Z,101562.34
2022-09-01T08:19:24.793Z,101563.78
2022-09-01T08:22:37.857Z,101567.94
2022-09-01T08:25:46.029Z,101571.84
2022-09-01T08:28:55.466Z,101563.94
2022-09-01T08:32:05.623Z,101567.91
2022-09-01T08:35:12.450Z,101565.78
2022-09-01T08:38:21.249Z,101569.94
2022-09-01T08:41:28.622Z,101575.56
2022-09-01T08:44:38.600Z,101572.03
2022-09-01T08:48:15.284Z,101566.41
2022-09-01T08:51:18.601Z,101563.06
2022-09-01T08:54:29.927Z,101564.75
2022-09-01T08:57:40.245Z,101564.28
2022-09-01T09:00:50.492Z,101556.59
2022-09-01T09:04:00.167Z,101560.75
2022-09-01T09:07:08.923Z,101566.78
2022-09-01T09:10:17.072Z,101562.16
2022-09-01T09:13:23.005Z,101565.06
2022-09-01T09:16:51.586Z,101562.09
2022-09-01T09:20:03.511Z,101555.97
2022-09-01T09:23:10.580Z,101551.53
2022-09-01T09:26:22.220Z,101559.78
2022-09-01T09:29:29.921Z,101551.00
2022-09-01T09:33:06.562Z,101552.72
2022-09-01T09:36:03.015Z,101546.63
2022-09-01T09:39:11.787Z,101540.38
2022-09-01T09:42:17.343Z,101544.19
2022-09-01T09:45:25.275Z,101534.56
2022-09-01T09:48:38.298Z,101529.75
2022-09-01T09:51:52.067Z,101530.53
2022-09-01T09:54:58.727Z,101522.41
2022-09-01T09:58:12.622Z,101523.81
2022-09-01T10:01:24.520Z,101525.84
2022-09-01T10:04:31.393Z,101519.25
2022-09-01T10:07:39.907Z,101517.94
2022-09-01T10:10:57.293Z,101516.69
2022-09-01T10:14:22.925Z,101511.41
2022-09-01T10:17:43.683Z,101504.03
2022-09-01T10:20:50.197Z,101507.44
2022-09-01T10:24:17.000Z,101505.78
2022-09-01T10:27:30.558Z,101507.00
2022-09-01T10:30:37.697Z,101506.03
2022-09-01T10:33:45.970Z,101509.88
2022-09-01T10:37:10.221Z,101507.28
2022-09-01T10:40:21.599Z,101500.75
2022-09-01T10:43:38.014Z,101500.44
2022-09-01T10:46:50.479Z,101512.88
2022-09-01T10:49:57.377Z,101505.59
2022-09-01T10:53:05.362Z,101505.00
2022-09-01T10:56:23.409Z,101502.97
2022-09-01T10:59:38.974Z,101503.94
2022-09-01T11:02:50.012Z,101509.63
2022-09-01T11:06:10.991Z,101510.31
2022-09-01T11:09:21.303Z,101512.38
2022-09-01T11:12:31.438Z,101509.53
2022-09-01T11:15:37.494Z,101509.13
2022-09-01T11:18:43.378Z,101511.09
2022-09-01T11:21:49.223Z,101502.72
2022-09-01T11:25:02.533Z,101497.84
2022-09-01T11:28:19.860Z,101494.38
2022-09-01T11:31:26.167Z,101495.47
2022-09-01T11:34:31.946Z,101487.59
2022-09-01T11:37:38.088Z,101489.44
2022-09-01T11:40:48.531Z,101478.69
2022-09-01T11:43:55.042Z,101493.69
2022-09-01T11:47:01.556Z,101480.22
2022-09-01T11:50:09.242Z,101486.88
2022-09-01T11:53:21.283Z,101481.78
2022-09-01T11:56:27.565Z,101484.06
2022-09-01T11:59:34.227Z,101477.06
2022-09-01T12:02:43.967Z,101484.84
2022-09-01T12:05:50.781Z,101481.09
2022-09-01T12:08:56.437Z,101477.38
2022-09-01T12:12:02.984Z,101478.38
2022-09-01T12:15:10.774Z,101479.66
2022-09-01T12:18:22.231Z,101476.19
2022-09-01T12:21:27.977Z,101478.44
2022-09-01T12:24:50.351Z,101472.91
2022-09-01T12:27:56.640Z,101471.03
2022-09-01T12:31:07.673Z,101476.25
2022-09-01T12:34:13.827Z,101480.03
2022-09-01T12:37:24.876Z,101486.31
2022-09-01T12:40:34.643Z,101483.22
2022-09-01T12:43:45.549Z,101483.88
2022-09-01T12:46:51.600Z,101484.41
2022-09-01T12:49:58.848Z,101474.72
2022-09-01T12:53:05.860Z,101475.72
2022-09-01T12:56:15.032Z,101471.38
2022-09-01T12:59:25.238Z,101467.63
2022-09-01T13:02:43.152Z,101466.63
2022-09-01T13:05:51.086Z,101464.03
2022-09-01T13:08:59.289Z,101469.09
2022-09-01T13:12:08.012Z,101461.50
2022-09-01T13:21:46.090Z,101450.44
2022-09-01T13:24:53.933Z,101449.47
2022-09-01T13:28:12.278Z,101446.13
2022-09-01T13:34:55.378Z,101451.88
2022-09-01T13:38:01.828Z,101455.94
2022-09-01T13:41:08.005Z,101452.50
2022-09-01T13:44:17.356Z,101451.31
2022-09-01T13:47:30.415Z,101460.78
2022-09-01T13:54:09.676Z,101456.03
2022-09-01T13:57:20.635Z,101453.31
2022-09-01T14:00:30.533Z,101456.53
2022-09-01T14:03:37.281Z,101456.53
2022-09-01T14:06:48.569Z,101466.44
2022-09-01T14:09:58.372Z,101460.38
2022-09-01T14:13:28.757Z,101455.28
2022-09-01T14:16:36.539Z,101456.19
2022-09-01T14:19:42.613Z,101446.69
2022-09-01T14:22:50.370Z,101444.13
2022-09-01T14:25:57.780Z,101442.81
2022-09-01T14:32:37.092Z,101440.78
2022-09-01T14:35:44.114Z,101438.78
2022-09-01T14:38:50.971Z,101435.88
2022-09-01T14:42:08.590Z,101431.78
2022-09-01T14:45:29.059Z,101428.72
2022-09-01T14:48:35.769Z,101424.72
2022-09-01T14:55:07.827Z,101433.88
2022-09-01T14:58:14.696Z,101427.44
2022-09-01T15:01:34.216Z,101433.19
2022-09-01T15:04:42.619Z,101433.94
2022-09-01T15:07:49.237Z,101425.88
2022-09-01T15:10:55.797Z,101424.31
2022-09-01T15:14:01.328Z,101425.81
2022-09-01T15:17:09.256Z,101434.31
2022-09-01T15:20:47.741Z,101433.47
2022-09-01T15:23:54.471Z,101434.44
2022-09-01T15:27:00.097Z,101425.88
2022-09-01T15:30:14.676Z,101424.22
2022-09-01T15:33:20.707Z,101427.06
2022-09-01T15:36:27.417Z,101425.69
2022-09-01T15:39:38.386Z,101421.94
2022-09-01T15:42:47.183Z,101421.19
2022-09-01T15:45:54.564Z,101408.50
2022-09-01T15:49:00.635Z,101416.94
2022-09-01T15:52:15.314Z,101410.72
2022-09-01T15:55:25.972Z,101413.75
2022-09-01T15:58:44.466Z,101409.41
2022-09-01T16:01:56.855Z,101400.81
2022-09-01T16:05:03.134Z,101399.53
2022-09-01T16:08:10.502Z,101399.16
2022-09-01T16:11:17.882Z,101411.53
2022-09-01T16:14:24.528Z,101407.25
2022-09-01T16:17:33.400Z,101416.13
2022-09-01T16:20:40.063Z,101410.56
2022-09-01T16:23:49.293Z,101413.38
2022-09-01T16:26:57.152Z,101411.19
2022-09-01T16:30:06.287Z,101408.94
2022-09-01T16:33:20.803Z,101414.31
2022-09-01T16:36:32.012Z,101406.16
2022-09-01T16:39:38.631Z,101408.13
2022-09-01T16:42:47.904Z,101412.41
2022-09-01T16:45:56.053Z,101404.88
2022-09-01T16:49:03.204Z,101404.03
2022-09-01T16:52:10.068Z,101409.97
2022-09-01T16:55:17.321Z,101410.03
2022-09-01T16:58:24.912Z,101411.06
2022-09-01T17:01:34.783Z,101411.66
2022-09-01T17:04:42.147Z,101415.31
2022-09-01T17:07:50.460Z,101416.56
2022-09-01T17:11:00.457Z,101409.09
2022-09-01T17:14:09.449Z,101414.06
2022-09-01T17:17:16.631Z,101403.47
2022-09-01T17:20:41.729Z,101418.63
2022-09-01T17:24:01.074Z,101410.31
2022-09-01T17:27:14.098Z,101411.41
2022-09-01T17:30:23.020Z,101415.56
2022-09-01T17:33:29.902Z,101424.44
2022-09-01T17:36:36.219Z,101417.84
2022-09-01T17:39:56.866Z,101423.59
2022-09-01T17:43:05.615Z,101427.03
2022-09-01T17:46:15.372Z,101414.66
2022-09-01T17:49:22.522Z,101418.13
2022-09-01T17:52:28.708Z,101425.72
2022-09-01T17:55:35.741Z,101428.91
2022-09-01T17:58:42.423Z,101439.56
2022-09-01T18:01:49.724Z,101430.06
2022-09-01T18:04:56.648Z,101433.66
2022-09-01T18:08:07.415Z,101435.13
2022-09-01T18:11:13.685Z,101431.66
2022-09-01T18:14:19.493Z,101436.06
2022-09-01T18:17:26.015Z,101442.09
2022-09-01T18:20:33.011Z,101436.53
2022-09-01T18:23:38.945Z,101439.66
2022-09-01T18:26:45.194Z,101438.19
2022-09-01T18:29:53.976Z,101438.59
2022-09-01T18:33:04.784Z,101445.25
2022-09-01T18:36:11.628Z,101444.41
2022-09-01T18:39:24.171Z,101456.03
2022-09-01T18:42:32.550Z,101448.56
2022-09-01T18:45:39.992Z,101448.38
2022-09-01T18:48:46.270Z,101457.25
2022-09-01T18:51:52.323Z,101454.34
2022-09-01T18:54:58.446Z,101457.88
2022-09-01T18:58:04.911Z,101447.72
2022-09-01T19:01:13.794Z,101460.78
2022-09-01T19:04:22.906Z,101473.81
2022-09-01T19:07:30.468Z,101466.13
2022-09-01T19:10:39.509Z,101472.56
2022-09-01T19:13:48.391Z,101459.31
2022-09-01T19:16:55.835Z,101469.47
2022-09-01T19:20:04.836Z,101470.50
2022-09-01T19:23:16.285Z,101468.38
2022-09-01T19:26:30.979Z,101475.44
2022-09-01T19:29:38.148Z,101476.66
2022-09-01T19:32:47.203Z,101481.63
2022-09-01T19:35:56.701Z,101487.41
2022-09-01T19:39:06.912Z,101479.13
2022-09-01T19:42:14.105Z,101478.69
2022-09-01T19:45:20.882Z,101481.34
2022-09-01T19:48:26.738Z,101479.66
2022-09-01T19:51:33.159Z,101482.28
2022-09-01T19:54:40.345Z,101483.94
2022-09-01T19:57:47.173Z,101482.84
2022-09-01T20:00:53.698Z,101482.63
2022-09-01T20:04:03.827Z,101485.72
2022-09-01T20:07:12.135Z,101494.19
2022-09-01T20:10:20.269Z,101502.03
2022-09-01T20:13:27.308Z,101496.22
2022-09-01T20:16:34.162Z,101502.81
2022-09-01T20:19:40.797Z,101503.19
2022-09-01T20:22:47.303Z,101496.75
2022-09-01T20:25:54.914Z,101498.56
2022-09-01T20:29:02.287Z,101497.50
2022-09-01T20:32:10.480Z,101505.50
2022-09-01T20:35:16.687Z,101505.66
2022-09-01T20:38:42.278Z,101508.47
2022-09-01T20:41:49.645Z,101509.84
2022-09-01T20:44:57.503Z,101510.81
2022-09-01T20:48:05.363Z,101511.13
2022-09-01T20:51:12.088Z,101506.72
2022-09-01T20:54:19.490Z,101507.06
2022-09-01T20:57:25.343Z,101518.88
2022-09-01T21:00:31.750Z,101505.59
2022-09-01T21:03:38.732Z,101508.78
2022-09-01T21:06:51.692Z,101514.47
2022-09-01T21:09:58.970Z,101516.56
2022-09-01T21:13:07.632Z,101517.25
2022-09-01T21:16:14.648Z,101517.38
2022-09-01T21:19:22.156Z,101516.63
2022-09-01T21:22:30.265Z,101518.56
2022-09-01T21:25:37.458Z,101509.97
2022-09-01T21:28:47.648Z,101510.25
2022-09-01T21:31:54.679Z,101511.34
2022-09-01T21:35:10.161Z,101506.44
2022-09-01T21:38:16.889Z,101513.91
2022-09-01T21:41:23.364Z,101522.84
2022-09-01T21:44:29.803Z,101519.19
2022-09-01T21:47:46.516Z,101512.91
2022-09-01T21:50:53.079Z,101515.47
2022-09-01T21:53:59.315Z,101517.22
2022-09-01T21:57:05.819Z,101523.09
2022-09-01T22:00:12.560Z,101521.31
2022-09-01T22:03:18.519Z,101516.84
2022-09-01T22:06:26.430Z,101522.56
2022-09-01T22:09:33.835Z,101528.47
2022-09-01T22:12:41.695Z,101533.50
2022-09-01T22:15:48.230Z,101529.69
2022-09-01T22:18:55.312Z,101530.22
2022-09-01T22:22:03.827Z,101531.75
2022-09-01T22:25:13.809Z,101522.44
2022-09-01T22:28:20.567Z,101533.66
2022-09-01T22:31:42.515Z,101523.47
2022-09-01T22:34:48.125Z,101534.16
2022-09-01T22:37:54.922Z,101534.16
2022-09-01T22:41:00.824Z,101534.00
2022-09-01T22:44:07.771Z,101533.66
2022-09-01T22:47:13.780Z,101535.81
2022-09-01T22:50:21.333Z,101533.78
2022-09-01T22:53:28.010Z,101527.06
2022-09-01T22:56:36.223Z,101522.38
2022-09-01T22:59:43.079Z,101518.50
2022-09-01T23:02:49.536Z,101519.34
2022-09-01T23:05:55.636Z,101523.22
2022-09-01T23:09:01.799Z,101521.88
2022-09-01T23:12:10.864Z,101525.75
2022-09-01T23:15:26.072Z,101515.59
2022-09-01T23:18:34.875Z,101520.63
2022-09-01T23:21:42.637Z,101517.63
2022-09-01T23:24:49.264Z,101524.34
2022-09-01T23:27:55.740Z,101517.66
2022-09-01T23:31:02.087Z,101516.00
2022-09-01T23:34:08.386Z,101517.84
2022-09-01T23:37:14.729Z,101510.66
2022-09-01T23:40:20.571Z,101505.28
2022-09-01T23:43:32.497Z,101508.63
2022-09-01T23:46:38.730Z,101508.63
2022-09-01T23:49:44.898Z,101512.31
2022-09-01T23:52:51.645Z,101513.16
2022-09-01T23:56:00.564Z,101510.47
2022-09-01T23:59:07.491Z,101518.84
